YHID

Details ICAO YHID (HID)
Name Horn Island
Region Australia
Timezone Australia/Brisbane (UTC+10.0)
Plans Departing 16
Arriving 25
Stats Elevation 43 ft / 13 m (AMSL)
Location -10.585660° 142.289969°
Runways 2
Magnetic Variation 4.882° E
Sunrise 2018-05-25 20:42:08 UTC / 2018-05-26 06:42:08 Local
Sunset 2018-05-26 08:16:25 UTC / 2018-05-26 18:16:25 Local
Advertisement - Login to hide

Runways

ID Width Length Bearing (true) Bearing (mag) Surface Threshold Offset Overrun Length
08 102 ft / 31 m 4,565 ft / 1,392 m 84.80° 79.92° Asphalt 0 ft / 0 m 66 ft / 20 m
14 75 ft / 23 m 4,082 ft / 1,244 m 139.90° 135.02° Asphalt 0 ft / 0 m 190 ft / 58 m
26 102 ft / 31 m 4,565 ft / 1,392 m 264.80° 259.92° Asphalt 0 ft / 0 m 200 ft / 61 m
32 75 ft / 23 m 4,082 ft / 1,244 m 319.90° 315.02° Asphalt 0 ft / 0 m 0 ft / 0 m

Map

Weather


0- 5 10 15 20 25 30 35+ Temperature / ° C

Clouds and Precipitation
Forecast for 2018-05-25 12:00 UTC. Updated 6 hours ago

Ground ~20,000 ft ~40,000 ft Winds

METAR

YHID 251630Z AUTO 14011KT 9999 // BKN023 OVC030 26/22 Q1010

TAF

TAF AMD YHID 251145Z 2512/2612 13014KT 9999 -SHRA SCT016 BKN018 BKN040 FM260000 12018G28KT 9999 -SHRA SCT018 BKN025 FM261000 13014KT 9999 -SHRA SCT016 BKN020 INTER 2514/2524 4000 SHRA BKN014

Frequencies

Unicom 119.60 MHz ACTIVATE LIGHTS ONLY MULT
Unicom 126.50 MHz Horn Island MULT
Unicom 120.30 MHz BRISBANE CENTRE MULT
Warning: Do not use this data for real-world aviation or navigation. No guarantee of current accuracy is given.